Map

Track Data

SID SEASON NUMBER BASIN SUBBASIN NAME ISO_TIME NATURE LAT LON WMO_WIND WMO_PRES WMO_AGENCY TRACK_TYPE DIST2LAND LANDFALL IFLAG USA_AGENCY USA_ATCF_ID USA_LAT USA_LON USA_RECORD USA_STATUS USA_WIND USA_PRES USA_SSHS USA_R34_NE USA_R34_SE USA_R34_SW USA_R34_NW USA_R50_NE USA_R50_SE USA_R50_SW USA_R50_NW USA_R64_NE USA_R64_SE USA_R64_SW USA_R64_NW USA_POCI USA_ROCI USA_RMW USA_EYE TOKYO_LAT TOKYO_LON TOKYO_GRADE TOKYO_WIND TOKYO_PRES TOKYO_R50_DIR TOKYO_R50_LONG TOKYO_R50_SHORT TOKYO_R30_DIR TOKYO_R30_LONG TOKYO_R30_SHORT TOKYO_LAND CMA_LAT CMA_LON CMA_CAT CMA_WIND CMA_PRES HKO_LAT HKO_LON HKO_CAT HKO_WIND HKO_PRES NEWDELHI_LAT NEWDELHI_LON NEWDELHI_GRADE NEWDELHI_WIND NEWDELHI_PRES NEWDELHI_CI NEWDELHI_DP NEWDELHI_POCI REUNION_LAT REUNION_LON REUNION_TYPE REUNION_WIND REUNION_PRES REUNION_TNUM REUNION_CI REUNION_RMW REUNION_R34_NE REUNION_R34_SE REUNION_R34_SW REUNION_R34_NW REUNION_R50_NE REUNION_R50_SE REUNION_R50_SW REUNION_R50_NW REUNION_R64_NE REUNION_R64_SE REUNION_R64_SW REUNION_R64_NW BOM_LAT BOM_LON BOM_TYPE BOM_WIND BOM_PRES BOM_TNUM BOM_CI BOM_RMW BOM_R34_NE BOM_R34_SE BOM_R34_SW BOM_R34_NW BOM_R50_NE BOM_R50_SE BOM_R50_SW BOM_R50_NW BOM_R64_NE BOM_R64_SE BOM_R64_SW BOM_R64_NW BOM_ROCI BOM_POCI BOM_EYE BOM_POS_METHOD BOM_PRES_METHOD NADI_LAT NADI_LON NADI_CAT NADI_WIND NADI_PRES WELLINGTON_LAT WELLINGTON_LON WELLINGTON_WIND WELLINGTON_PRES DS824_LAT DS824_LON DS824_STAGE DS824_WIND DS824_PRES TD9636_LAT TD9636_LON TD9636_STAGE TD9636_WIND TD9636_PRES TD9635_LAT TD9635_LON TD9635_WIND TD9635_PRES TD9635_ROCI NEUMANN_LAT NEUMANN_LON NEUMANN_CLASS NEUMANN_WIND NEUMANN_PRES MLC_LAT MLC_LON MLC_CLASS MLC_WIND MLC_PRES USA_GUST BOM_GUST BOM_GUST_PER REUNION_GUST REUNION_GUST_PER USA_SEAHGT USA_SEARAD_NE USA_SEARAD_SE USA_SEARAD_SW USA_SEARAD_NW STORM_SPEED STORM_DIR
1865267N20287 1865 19 NA NA NOT_NAMED 1865-09-23 12:00:00 TS 20.0000 -73.0000 main 11 11 _____________O -1 20.0000 -73.0000 TD 30 3 44
1865267N20287 1865 19 NA NA NOT_NAMED 1865-09-23 15:00:00 TS 20.1100 -72.8876 main 22 22 _____________P -1 20.1100 -72.8876 TD 30 3 44
1865267N20287 1865 19 NA NA NOT_NAMED 1865-09-23 18:00:00 TS 20.2000 -72.8000 main 33 33 _____________O -1 20.2000 -72.8000 TD 30 2 42
1865267N20287 1865 19 NA NA NOT_NAMED 1865-09-23 21:00:00 TS 20.2575 -72.7500 main 44 44 _____________P -1 20.2575 -72.7500 TD 30 1 43
1865267N20287 1865 19 NA NA NOT_NAMED 1865-09-24 00:00:00 TS 20.3000 -72.7000 main 44 44 _____________O -1 20.3000 -72.7000 TD 30 2 54
1865267N20287 1865 19 NA NA NOT_NAMED 1865-09-24 03:00:00 TS 20.3500 -72.6075 main 55 55 _____________P -1 20.3500 -72.6075 TD 30 2 61
1865267N20287 1865 19 NA NA NOT_NAMED 1865-09-24 06:00:00 TS 20.4000 -72.5000 main 56 56 _____________O -1 20.4000 -72.5000 TD 30 2 61
1865267N20287 1865 19 NA NA NOT_NAMED 1865-09-24 09:00:00 TS 20.4500 -72.4075 main 59 59 _____________P -1 20.4500 -72.4075 TD 30 2 61
1865267N20287 1865 19 NA NA NOT_NAMED 1865-09-24 12:00:00 TS 20.5000 -72.3000 main 74 74 _____________O -1 20.5000 -72.3000 TD 30 2 66
1865267N20287 1865 19 NA NA NOT_NAMED 1865-09-24 15:00:00 TS 20.5500 -72.1650 main 79 79 _____________P -1 20.5500 -72.1650 TD 30 3 70
1865267N20287 1865 19 NA NA NOT_NAMED 1865-09-24 18:00:00 TS 20.6000 -72.0000 main 91 89 _____________O -1 20.6000 -72.0000 TD 30 4 74
1865267N20287 1865 19 NA NA NOT_NAMED 1865-09-24 21:00:00 TS 20.6500 -71.8000 main 100 100 _____________P -1 20.6500 -71.8000 TD 30 4 75
1865267N20287 1865 19 NA NA NOT_NAMED 1865-09-25 00:00:00 TS 20.7000 -71.6000 main 100 100 _____________O -1 20.7000 -71.6000 TD 30 3 73
1865267N20287 1865 19 NA NA NOT_NAMED 1865-09-25 03:00:00 TS 20.7500 -71.4425 main 100 100 _____________P -1 20.7500 -71.4425 TD 30 3 70
1865267N20287 1865 19 NA NA NOT_NAMED 1865-09-25 06:00:00 TS 20.8000 -71.3000 main 111 111 _____________O -1 20.8000 -71.3000 TD 30 3 73
1865267N20287 1865 19 NA NA NOT_NAMED 1865-09-25 09:00:00 TS 20.8350 -71.1499 main 111 111 _____________P -1 20.8350 -71.1499 TD 30 3 70
1865267N20287 1865 19 NA NA NOT_NAMED 1865-09-25 12:00:00 TS 20.9000 -71.0000 main 123 123 _____________O -1 20.9000 -71.0000 TD 30 4 55
1865267N20287 1865 19 NA NA NOT_NAMED 1865-09-25 15:00:00 TS 21.0350 -70.8425 main 134 134 _____________P -1 21.0350 -70.8425 TD 30 4 43
1865267N20287 1865 19 NA NA NOT_NAMED 1865-09-25 18:00:00 TS 21.2000 -70.7000 main 156 156 _____________O -1 21.2000 -70.7000 TD 30 4 36
1865267N20287 1865 19 NA NA NOT_NAMED 1865-09-25 21:00:00 TS 21.3500 -70.5999 main 167 167 _____________P -1 21.3500 -70.5999 TD 30 4 31
1865267N20287 1865 19 NA NA NOT_NAMED 1865-09-26 00:00:00 TS 21.5000 -70.5000 main 190 190 _____________O -1 21.5000 -70.5000 TD 30 4 37
1865267N20287 1865 19 NA NA NOT_NAMED 1865-09-26 03:00:00 TS 21.6575 -70.3500 main 213 213 _____________P -1 21.6575 -70.3500 TD 30 4 43
1865267N20287 1865 19 NA NA NOT_NAMED 1865-09-26 06:00:00 TS 21.8000 -70.2000 main 227 227 _____________O -1 21.8000 -70.2000 TD 30 3 46
1865267N20287 1865 19 NA NA NOT_NAMED 1865-09-26 09:00:00 TS 21.9000 -70.0850 main 240 240 _____________P -1 21.9000 -70.0850 TD 30 3 43
1865267N20287 1865 19 NA NA NOT_NAMED 1865-09-26 12:00:00 TS 22.0000 -70.0000 main 253 253 _____________O -1 22.0000 -70.0000 TD 30 3 29
1865267N20287 1865 19 NA NA NOT_NAMED 1865-09-26 15:00:00 TS 22.1425 -69.9425 main 267 267 _____________P -1 22.1425 -69.9425 TD 32 3 16
1865267N20287 1865 19 NA NA NOT_NAMED 1865-09-26 18:00:00 TS 22.3000 -69.9000 main 288 288 _____________O -1 22.3000 -69.9000 TS 35 3 15
1865267N20287 1865 19 NA NA NOT_NAMED 1865-09-26 21:00:00 TS 22.4500 -69.8500 main 313 302 _____________P -1 22.4500 -69.8500 TS 35 3 16
1865267N20287 1865 19 NA NA NOT_NAMED 1865-09-27 00:00:00 TS 22.6000 -69.8000 main 323 323 _____________O -1 22.6000 -69.8000 TS 35 3 17
1865267N20287 1865 19 NA NA NOT_NAMED 1865-09-27 03:00:00 TS 22.7500 -69.7425 main 348 348 _____________P -1 22.7500 -69.7425 TS 37 3 16
1865267N20287 1865 19 NA NA NOT_NAMED 1865-09-27 06:00:00 TS 22.9000 -69.7000 main 358 358 _____________O -1 22.9000 -69.7000 TS 40 3 7
1865267N20287 1865 19 NA NA NOT_NAMED 1865-09-27 09:00:00 TS 23.0275 -69.6925 main 369 369 _____________P -1 23.0275 -69.6925 TS 42 3 0
1865267N20287 1865 19 NA NA NOT_NAMED 1865-09-27 12:00:00 TS 23.2000 -69.7000 main 391 391 _____________O -1 23.2000 -69.7000 TS 45 5 0
1865267N20287 1865 19 NA NA NOT_NAMED 1865-09-27 15:00:00 TS 23.4775 -69.6926 main 424 424 _____________P -1 23.4775 -69.6926 TS 47 6 1
1865267N20287 1865 19 NA NA NOT_NAMED 1865-09-27 18:00:00 TS 23.8000 -69.7000 main 446 446 _____________O -1 23.8000 -69.7000 TS 50 6 354
1865267N20287 1865 19 NA NA NOT_NAMED 1865-09-27 21:00:00 TS 24.1000 -69.7574 main 461 461 _____________P -1 24.1000 -69.7574 TS 52 6 352
1865267N20287 1865 19 NA NA NOT_NAMED 1865-09-28 00:00:00 TS 24.4000 -69.8000 main 485 485 _____________O -1 24.4000 -69.8000 TS 55 6 359
1865267N20287 1865 19 NA NA NOT_NAMED 1865-09-28 03:00:00 TS 24.7000 -69.7651 main 510 510 _____________P -1 24.7000 -69.7651 TS 57 6 8
1865267N20287 1865 19 NA NA NOT_NAMED 1865-09-28 06:00:00 TS 25.0000 -69.7000 main 542 542 _____________O -1 25.0000 -69.7000 TS 60 6 7
1865267N20287 1865 19 NA NA NOT_NAMED 1865-09-28 09:00:00 TS 25.2699 -69.6796 main 568 568 _____________P -1 25.2699 -69.6796 TS 60 6 8
1865267N20287 1865 19 NA NA NOT_NAMED 1865-09-28 12:00:00 TS 25.6000 -69.6000 main 601 601 _____________O -1 25.6000 -69.6000 TS 60 8 18
1865267N20287 1865 19 NA NA NOT_NAMED 1865-09-28 15:00:00 TS 26.0700 -69.3876 main 658 658 _____________P -1 26.0700 -69.3876 TS 62 11 24
1865267N20287 1865 19 NA NA NOT_NAMED 1865-09-28 18:00:00 TS 26.6000 -69.1000 main 721 721 _____________O -1 26.6000 -69.1000 HU 65 12 27
1865267N20287 1865 19 NA NA NOT_NAMED 1865-09-28 21:00:00 TS 27.1000 -68.8073 main 784 784 _____________P -1 27.1000 -68.8073 HU 65 11 28
1865267N20287 1865 19 NA NA NOT_NAMED 1865-09-29 00:00:00 TS 27.6000 -68.5000 main 847 847 _____________O -1 27.6000 -68.5000 HU 65 11 28
1865267N20287 1865 19 NA NA NOT_NAMED 1865-09-29 03:00:00 TS 28.1074 -68.1998 main 910 910 _____________P -1 28.1074 -68.1998 HU 65 11 28
1865267N20287 1865 19 NA NA NOT_NAMED 1865-09-29 06:00:00 TS 28.6000 -67.9000 main 973 973 _____________O -1 28.6000 -67.9000 HU 65 11 29
1865267N20287 1865 19 NA NA NOT_NAMED 1865-09-29 09:00:00 TS 29.0574 -67.6071 main 1035 1035 _____________P -1 29.0574 -67.6071 HU 65 10 30
1865267N20287 1865 19 NA NA NOT_NAMED 1865-09-29 12:00:00 TS 29.5000 -67.3000 main 1037 1029 _____________O -1 29.5000 -67.3000 HU 65 11 33
1865267N20287 1865 19 NA NA NOT_NAMED 1865-09-29 15:00:00 TS 29.9500 -66.9499 main 1029 1021 _____________P -1 29.9500 -66.9499 HU 65 11 34
1865267N20287 1865 19 NA NA NOT_NAMED 1865-09-29 18:00:00 TS 30.4000 -66.6000 main 1022 1016 _____________O -1 30.4000 -66.6000 HU 65 11 32
1865267N20287 1865 19 NA NA NOT_NAMED 1865-09-29 21:00:00 TS 30.8499 -66.2921 main 1018 1009 _____________P -1 30.8499 -66.2921 HU 62 10 30
1865267N20287 1865 19 NA NA NOT_NAMED 1865-09-30 00:00:00 TS 31.3000 -66.0000 main 1011 1005 _____________O -1 31.3000 -66.0000 TS 60 10 29
1865267N20287 1865 19 NA NA NOT_NAMED 1865-09-30 03:00:00 TS 31.7499 -65.6997 main 1012 1004 _____________P -1 31.7499 -65.6997 TS 57 10 29
1865267N20287 1865 19 NA NA NOT_NAMED 1865-09-30 06:00:00 TS 32.2000 -65.4000 main 1011 1006 _____________O -1 32.2000 -65.4000 TS 55 11 29
1865267N20287 1865 19 NA NA NOT_NAMED 1865-09-30 09:00:00 TS 32.6725 -65.0925 main 1013 1013 _____________P -1 32.6725 -65.0925 TS 55 10 29
1865267N20287 1865 19 NA NA NOT_NAMED 1865-09-30 12:00:00 TS 33.1000 -64.8000 main 1023 1019 _____________O -1 33.1000 -64.8000 TS 55 9 31
1865267N20287 1865 19 NA NA NOT_NAMED 1865-09-30 15:00:00 TS 33.4299 -64.5421 main 1039 1021 _____________P -1 33.4299 -64.5421 TS 52 7 35
1865267N20287 1865 19 NA NA NOT_NAMED 1865-09-30 18:00:00 TS 33.7000 -64.3000 main 1021 1010 _____________O -1 33.7000 -64.3000 TS 50 7 38
1865267N20287 1865 19 NA NA NOT_NAMED 1865-09-30 21:00:00 TS 33.9499 -64.0497 main 1014 995 _____________P -1 33.9499 -64.0497 TS 50 7 40
1865267N20287 1865 19 NA NA NOT_NAMED 1865-10-01 00:00:00 TS 34.2000 -63.8000 main 995 976 _____________O -1 34.2000 -63.8000 TS 50 7 37
1865267N20287 1865 19 NA NA NOT_NAMED 1865-10-01 03:00:00 TS 34.5000 -63.5500 main 981 964 _____________P -1 34.5000 -63.5500 TS 47 7 34
1865267N20287 1865 19 NA NA NOT_NAMED 1865-10-01 06:00:00 TS 34.8000 -63.3000 main 964 951 _____________O -1 34.8000 -63.3000 TS 45 7 33
1865267N20287 1865 19 NA NA NOT_NAMED 1865-10-01 09:00:00 TS 35.0494 -63.1091 main 956 935 _____________P -1 35.0494 -63.1091 TS 45 6 39
1865267N20287 1865 19 NA NA NOT_NAMED 1865-10-01 12:00:00 TS 35.3000 -62.8000 main 937 915 _____________O -1 35.3000 -62.8000 TS 45 9 54
1865267N20287 1865 19 NA NA NOT_NAMED 1865-10-01 15:00:00 TS 35.5930 -62.2028 main 918 902 _____________P -1 35.5930 -62.2028 TS 45 12 60
1865267N20287 1865 19 NA NA NOT_NAMED 1865-10-01 18:00:00 TS 35.9000 -61.5000 main 905 894 _____________O -1 35.9000 -61.5000 TS 45 13 61
1865267N20287 1865 19 NA NA NOT_NAMED 1865-10-01 21:00:00 TS 36.2003 -60.8253 main 897 882 _____________P -1 36.2003 -60.8253 TS 45 11 58
1865267N20287 1865 19 NA NA NOT_NAMED 1865-10-02 00:00:00 TS 36.5000 -60.3000 main 886 865 _____________O -1 36.5000 -60.3000 TS 45 8 45
1865267N20287 1865 19 NA NA NOT_NAMED 1865-10-02 03:00:00 TS 36.7994 -60.0816 main 865 840 _____________P -1 36.7994 -60.0816 TS 45 6 22
1865267N20287 1865 19 NA NA NOT_NAMED 1865-10-02 06:00:00 TS 37.1000 -60.0000 main 840 817 _____________O -1 37.1000 -60.0000 TS 45 6 14
1865267N20287 1865 19 NA NA NOT_NAMED 1865-10-02 09:00:00 TS 37.4072 -59.8944 main 817 798 _____________P -1 37.4072 -59.8944 TS 45 6 22
1865267N20287 1865 19 NA NA NOT_NAMED 1865-10-02 12:00:00 TS 37.7000 -59.7000 main 798 790 _____________O -1 37.7000 -59.7000 TS 45 7 40
1865267N20287 1865 19 NA NA NOT_NAMED 1865-10-02 15:00:00 TS 37.9651 -59.3026 main 792 792 _____________P -1 37.9651 -59.3026 TS 45 9 55
1865267N20287 1865 19 NA NA NOT_NAMED 1865-10-02 18:00:00 ET 38.2000 -58.8000 main 795 788 _____________O -1 38.2000 -58.8000 EX 45 9 61
1865267N20287 1865 19 NA NA NOT_NAMED 1865-10-02 21:00:00 ET 38.4000 -58.2996 main 790 779 _____________P -1 38.4000 -58.2996 EX 45 9 63
1865267N20287 1865 19 NA NA NOT_NAMED 1865-10-03 00:00:00 ET 38.6000 -57.8000 main 782 770 _____________O -1 38.6000 -57.8000 EX 45 9 59
1865267N20287 1865 19 NA NA NOT_NAMED 1865-10-03 03:00:00 ET 38.8496 -57.3498 main 777 757 _____________P -1 38.8496 -57.3498 EX 45 9 55
1865267N20287 1865 19 NA NA NOT_NAMED 1865-10-03 06:00:00 ET 39.1000 -56.9000 main 760 752 _____________O -1 39.1000 -56.9000 EX 45 9 58
1865267N20287 1865 19 NA NA NOT_NAMED 1865-10-03 09:00:00 ET 39.3073 -56.4146 main 760 755 _____________P -1 39.3073 -56.4146 EX 45 9 63
1865267N20287 1865 19 NA NA NOT_NAMED 1865-10-03 12:00:00 ET 39.5000 -55.9000 main 763 763 _____________O -1 39.5000 -55.9000 EX 45 9 64
1865267N20287 1865 19 NA NA NOT_NAMED 1865-10-03 15:00:00 ET 39.6999 -55.3498 main 773 751 _____________P -1 39.6999 -55.3498 EX 45 9 65
1865267N20287 1865 19 NA NA NOT_NAMED 1865-10-03 18:00:00 ET 39.9000 -54.8000 main 751 724 _____________O -1 39.9000 -54.8000 EX 45 9 64
1865267N20287 1865 19 NA NA NOT_NAMED 1865-10-03 21:00:00 ET 40.0996 -54.2996 main 724 700 _____________P -1 40.0996 -54.2996 EX 45 9 62
1865267N20287 1865 19 NA NA NOT_NAMED 1865-10-04 00:00:00 ET 40.3000 -53.8000 main 700 678 _____________O -1 40.3000 -53.8000 EX 45 9 63
1865267N20287 1865 19 NA NA NOT_NAMED 1865-10-04 03:00:00 ET 40.5074 -53.2500 main 678 656 _____________P -1 40.5074 -53.2500 EX 45 9 64
1865267N20287 1865 19 NA NA NOT_NAMED 1865-10-04 06:00:00 ET 40.7000 -52.7000 main 657 647 _____________O -1 40.7000 -52.7000 EX 45 8 68
1865267N20287 1865 19 NA NA NOT_NAMED 1865-10-04 09:00:00 ET 40.8193 -52.2207 main 649 632 _____________P -1 40.8193 -52.2207 EX 45 8 68
1865267N20287 1865 19 NA NA NOT_NAMED 1865-10-04 12:00:00 ET 41.0000 -51.7000 main 633 610 _____________O -1 41.0000 -51.7000 EX 45 10 59
1865267N20287 1865 19 NA NA NOT_NAMED 1865-10-04 15:00:00 ET 41.3624 -51.0380 main 603 577 _____________P -1 41.3624 -51.0380 EX 45 13 53
1865267N20287 1865 19 NA NA NOT_NAMED 1865-10-04 18:00:00 ET 41.8000 -50.3000 main 581 565 _____________O -1 41.8000 -50.3000 EX 45 14 53
1865267N20287 1865 19 NA NA NOT_NAMED 1865-10-04 21:00:00 ET 42.1997 -49.5567 main 565 558 _____________P -1 42.1997 -49.5567 EX 45 14 54
1865267N20287 1865 19 NA NA NOT_NAMED 1865-10-05 00:00:00 ET 42.6000 -48.8000 main 563 559 _____________O -1 42.6000 -48.8000 EX 45 14 54
1865267N20287 1865 19 NA NA NOT_NAMED 1865-10-05 03:00:00 ET 43.0009 -48.0494 main 571 567 _____________P -1 43.0009 -48.0494 EX 45 14 54
1865267N20287 1865 19 NA NA NOT_NAMED 1865-10-05 06:00:00 ET 43.4000 -47.3000 main 582 _____________O -1 43.4000 -47.3000 EX 45 13 54

About IBTrACS Database

This database is a web-friendly format of International Best Track Archive for Climate Stewardship (IBTrACS), a global best track data archive curated by NOAA dating back to 1842.

Updated: 2021-10-08